Timeline UpdatesTrip UpdatesNews PostsPvt PostsTravel TipsAdmin PostsConv PostsFollowed PostsChat RequestsBlog PostsPNR Posts

Disclaimer
Search
 
 
Wed Oct 1, 2014 01:25:39 ISTHomeTrainsΣChainsAtlasPNRForumGalleryNewsFAQTripsMembersLoginFeedback
No Recent News for this Train
Other Trains in the News **new
Latest...
2S avbl b/w mumbai & surat .
Tue Feb 04, 2014 (12:55AM)
⇐ Return Journey: Train# 19024

19023/Mumbai Firozpur Janta Express

Time-Table HAS CHANGED.
Sep 02 (12:00AM)
Change Departure Station:
Change Arrival Station:
Post a Train Travel TipPost a Train Travel Tip **new
Post a Comment/Question/Picture/VideoPost a Comment/Question/Picture/Video
Inaugural Run
Mon Oct 01, 1956
Pantry/Catering
✕ NO Pantry Car
✓ Catering Avbl
Catering from local vendors
RSA - Rake Sharing
No RSA. Independent Rake.
Rake/Coach Composition
LOCO, HCPV, SLR, GS, S-8, S-7, S-6, S-5, S-4, S-3, S-2, S-1, GS, GS(MST), GS, SLR Author: Manish Kr Singh Entry: 640399
Loco
BCT NDLS = GZB WAP#5, NDLS-FZR TKD WDP-4/4B
News    PNR    Forum    Time-Table    Availability    Fare Chart    Map    Arr/Dep History    Trips    Gallery    ΣChains    X/O    Timeline    
Travel Time: 29h 20m    69 halts    Distance: 1386 km    Avg Speed: 47 km/hr
Type: Mail/Express
Zone: WR/Western
Departs @ 07:25 (Avg 1m late)
Platform# 4
SMTWTFS
Mumbai Central/BCT 
Arrives @ 12:45 +1 night (Avg 12m late)
Platform# 1
SMTWTFS
New Delhi/NDLS 

69 halts. 225 intermediate Stations between Mumbai Central and New Delhi

Show ALL intermediate Stations  Show Old Time-Table

#CodeStation NameX/OArrivesAvgDepartsAvgHaltPFDay#KmSpeedElevZoneAddress
1BCTMumbai Central (9)»  -07:25+1410.0403mWRMumbai 400008, Maharashtra
2DDRMumbai Dadar Western (6)  07:34+407:37+43m315.9536mWRMumbai, Maharashtra
3BVIMumbai Borivali (8)  08:04+608:07+63m4129.75119mWRMumbai - 400092, Maharashtra
4PLGPalghar (3)O  09:14+1009:16+122m1186.64219mWRPalghar, Maharashtra
5BORBoisar (3)X  09:32+709:34+102m2197.93317mWRBoisar Tel.no-02525-266626, Maharashtra
6VGNVangaon (3)XO  09:51+309:52+61m11107.35311mWRDist. Palghar, Maharashtra
7DRDDahanu Road (5)X  10:06+410:08+52m11119.67612mWRDahanu, Maharashtra
8UBRUmbargam Road (3)XO  10:24+510:26+62m11139.93630mWRUmbergaon, Gujarat
9SJNSanjan (3)X  10:34 10:35+510:36 10:37+62m11145.36922mWRSanjan, Gujarat
10BLDBhilad (3)  10:46 10:47+610:48 10:49+62m21156.96233mWRBhilad, Gujarat
11VAPIVapi (3)X  11:00+511:02+82m11168.14827mWRVapi, Gujarat
12UVDUdvada (3)X  11:14+711:16+72m--1177.76018mWRUdvada, Gujarat
13PADPardi (3)X  11:22+711:24+72m--1183.74919mWRValsad, Gujarat
14BLValsad (3)X  11:42 11:37+511:47 11:42+85m21194.47215mWRValsad, Gujarat
15BIMBilimora Junction (4)X  11:59 11:57+1112:01 12:02+102 5m11212.33711mWRBilimora, Gujarat
16AMLAmalsad (3)  12:10 12:11+812:12 12:13+82m11217.910412mWRAmalsad, Gujarat
17NVSNavsari (3)X  12:22+1412:27+125m11233.54614mWRNavsari, Gujarat
18MRLMaroli (3)X  12:38+1212:40+132m11241.92715mWRMaroli, Gujarat
19STSurat (4)X  13:27+313:37+410m11263.17919mWRSurat 395001, Gujarat
20KIMKim (2)X  13:55+2513:57+242m11286.75818mWRNH 8, Gujarat
21KSBKosamba Junction (3)  14:05+2614:07+252m11294.57130mWRKosamba, Gujarat
22PAOPanoli (3)  14:14+2614:16+262m11302.77729mWRPanoli, Gujarat
23AKVAnkleshwar Junction (4)  14:24+2814:26+272m11313.03719mWRAnkleshwar, Gujarat
24BHBharuch Junction (5)  14:41+2414:46+235m31322.48019mWRBharuch, Gujarat
25NIUNabipur (3)14:55+2814:57+272m--1334.48024mWRNabipur, Gujarat
26PLJPalej (4)X  15:07+2815:09+272m--1347.88329mWRPalej, Gujarat
27MYGMiyagam Karjan (2)X  15:20+2915:22+282m21363.05429mWRKarjan, Gujarat
28BRCVadodara Junction (7)  15:55+2916:05+2810m61392.97336mWRVadodara 390005, Gujarat
29SMLASamlaya Junction (3)  16:27+1:0516:29+1:042m--1419.57567mWRVadodara, Gujarat
30DRLDerol  16:48+3916:50+392m--1443.24381mWRKalol, Gujarat
31GDAGodhra Junction (3)  17:23+1917:28+195m21466.858122mWRGodhra, Gujarat
32SATSant Road (2)X  17:47 17:49+3617:49 17:51+352m--1487.171169mWROrwara, Gujarat
33PPDPiplod Junction  17:59 18:01+3818:01 18:02+382 1m--1499.068209mWRPiplod, Gujarat
34LMKLimkheda  18:07 18:09+4118:09 18:10+402 1m--1506.973205mWRLimkheda, Gujarat
35DHDDahod (3)  18:37+4118:42+405m--1539.990313mWRDahod, Gujarat
36MGNMeghnagar (3)X  19:02 19:04+4719:04 19:06+472m--1573.060317mWRJhabua, Madhya Pradesh
37THDRThandla Road (2)X  19:12 19:14+4619:14 19:15+462 1m--1581.069317mWRJhabua, Madhya Pradesh
38BMIBamnia (2)X  19:37 19:39+4819:39 19:41+492m--1608.550392mWRBamnia, Madhya Pradesh
39RTMRatlam Junction (7)X  20:35+3320:55+3120m51653.366495mWRRatlam, Madhya Pradesh
40KUHKhachrod (2)X  21:17 21:20+3721:19 21:22+372m--1680.922497mWRUjjain, Madhya Pradesh
41NADNagda Junction (4)X  22:00+1222:05+135m--1694.768468mWRNagda, Madhya Pradesh
42MEPMahidpur Road  22:20+2322:22+232m--1711.890493mWCRGogapur, Madhya Pradesh
43VMAVikramgarh Alot (2)X  22:38+2322:40+242m21735.782443mWCRKota Division, Madhya Pradesh
44CMUChau Mahla (3)  22:56+2522:58+262m21757.566426mWCRJhalawar, Rajasthan
45SVASuwasra (2)  23:12+2523:14+252m--1772.958450mWCRSuwasra, Madhya Pradesh
46SGZShamgarh (3)  23:28+2423:30+252m--1786.369463mWCRMandsaur, Madhya Pradesh
47BWMBhawani Mandi (3)  23:59+1900:01+222m--1819.871384mWCRBhawani Mandi, Madhya Pradesh
48JHWJhalawar Road (3)X  00:15+2100:17+212m--2836.353361mWCRJhalawar City, Rajasthan
49RMARamganj Mandi Junction (3)X  00:31+1700:33+192m--2848.682358mWCRRamganj Mandi, Rajasthan
50KOTAKota Junction (5)X  01:25+2801:35+3110m12919.971256mWCRKota, Rajasthan
51LKELakheri (3)X  02:26+2702:28+292m--2980.555228mWCRBundi, Rajasthan
52IDGIndargarh Sumerganj Mandi (2)X  02:40+2902:42+322m--2991.566247mWCRIndargarh, Rajasthan
53SWMSawai Madhopur Junction (4)X  03:15+3303:20+345m--21027.772266mWCRSawai Madhopur, Rajasthan
54MLZMalarna  03:45+3403:47+362m--21057.944236mWCRSawai Madhopur, Rajasthan
55NNWNarayanpur Tatwara (2)XO  04:10+3004:12+582m--21074.712256mWCRSawai Madhopur, Rajasthan
56GGCGangapur City (3)OO  05:40+705:45+185m121091.660270mWCRGangapur, Rajasthan
57SMBJShri Mahabirji (3)  06:19+1406:20+171m--21125.747240mWCRKarauli, Rajasthan
58HANHindaun City (2)  06:33+1506:35+232m--21135.979230mWCRKarauli, Rajasthan
59FSPFateh Singhpura  06:45+2606:47+272m--21149.166223mWCRState Highway 1, Rajasthan
60BXNBayana Junction (3)  07:05+3007:10+355m--21168.850198mWCRBayana, Rajasthan
61BTEBharatpur Junction (5)X  08:00+2008:05+355m--21210.824174mWCRBharatpur, Rajasthan
62MTJMathura Junction (10)  09:35 09:30+009:45 09:35+510 5m421244.369179mNCRMathura, Uttar Pradesh
63CHJChata (4)X  10:07 10:02+810:09 10:04+92m--21275.551 NCRChhata, Uttar Pradesh
64KSVKosi Kalan (3)X  10:20 10:16+910:22 10:18+92m121285.854189mNCRKosi Kalan, Uttar Pradesh
65PWLPalwal (8)X  11:08 11:05-111:10 11:07+32m--21328.279200mNRPalwal, Haryana
66BVHBallabgarh (5)X  11:28 11:23+711:30 11:25+72m--21349.440203mNRFaridabad, Haryana
67FDBFaridabad (4)X  11:41 11:37+811:43 11:39+92m221357.556206mNRold Faridabad, Haryana
68TKDTuglakabad (4)  11:55 11:51+1111:57 11:53+122m--21368.628213mNRNear Tughlakabad Metro Station, Delhi NCT
69OKAOkhla (4)X  12:06+1212:08 12:07+112 1m--21374.628221mNRIshwar Nagar Mathura Road, Delhi NCT
70NZMDelhi Hazrat Nizamuddin (7)O  12:18 12:15+1012:20 12:17+102m321378.316209mNRNew Delhi 110013, Delhi NCT
71NDLSNew Delhi (16)•XO  12:45+1213:15+930m121385.614215mNRNew Delhi, Delhi NCT
72DKZDelhi KishanGanj (2)  13:32+1913:34+192m--21389.530220mNRSarai Rohilla, Delhi NCT
73SSBShakur Basti  13:49 13:48+1813:51 13:50+212m--21396.545216mNRPitampura, Delhi NCT
74NNONangloi  14:00+2314:02+242m--21403.958219mNRJJ Colony No 1, Delhi NCT
75BGZBahadurgarh  14:14 14:15+2014:16 14:17+212m--21416.467220mNRBahadurgarh, Haryana
76SPZSampla  14:43 14:33+3214:45 14:35+322m--21434.434222mNRSampla, Haryana
77ROKRohtak Junction (3)  15:10 15:15+2015:15 15:20+205m--21456.782220mNRRohtak, Haryana
78JNAJulana  15:41 15:43+2415:43 15:45+242m--21488.151226mNRJulana, Haryana
79JINDJind Junction (3)  16:15+2016:20+195m--21513.875222mNR126102., Haryana
80UCAUchana  16:35+2616:37+272m--21532.565225mNRDistrict Jind, Haryana
81NRWNarwana Junction (4)  16:51+3016:53+302m--21547.773235mNRWay to Narwana, Haryana
82TUNTohana (2)  17:14+2917:15+301m--21573.237232mNRTohana, Haryana
83JHLJakhal Junction  17:35+2417:40+235m--21585.478225mNRJakhal, Haryana
84BRZBareta  17:51+2717:53+272m--21599.671223mNRBareta, Punjab
85BLZBudhlada  18:06+2818:08+282m--21615.064223mNRBudhlada, Punjab
86MSZMansaX  18:23+1618:25+162m--21631.137222mNRMansa, Punjab
87KTKLKotli Kalan  18:39-18:41-2m--21639.7101219mNRState Highway 12A, Punjab
88MAURMaur  18:47+2318:49+232m--21649.835220mNRMaur Mandi, Punjab
89BTIBathinda Junction (6)  19:50+420:00+310m121685.367208mNRBathinda, Punjab
90GNAGoneana Bhai Jagta (3)  20:11+1320:13+142m121697.657206mNRGoniana, Punjab
91GJUTGangsar Jaitu (3)  20:28+1620:30+182m121711.849207mNRJaitu, Punjab
92KKPKot Kapura Junction (3)  20:50+1220:52+122m121728.1590mNRKotkapura, Punjab
93FDKFaridkot (3)  21:05+1021:07+92m121740.827202mNRFaridkot, Punjab
94FZRFirozpur Cantt. Junction (5)  22:20-1-121773.1-200mNRFirozpur Cantt 152001, Punjab
Scroll to Top
Scroll to Bottom